Diego Cavallini 40:00 BikeErg

21,580

Meters

40:00.0

Time

1:51.2

Pace

763

Calories

151

Heart Rate

Average Watts254
Calories Per Hour1144
RPM65
Revolution Count2602
Power/kg3.39
Drag Factor217

September 03, 2026 12:45:00

Workout
BikeErg

Workout Type
Fixed Time

Verified
No

Entered
ErgData Android

Splits

Time Meters Pace Watts Cal/Hr Cal RPM
40:00.0 21,580 1:51.2 254 1144 763 65 151
1:00.0 497 2:00.7 199 960 16 83 126
2:00.0 513 1:56.9 219 1020 17 88 129
3:00.0 507 1:58.3 211 1020 17 86 129
4:00.0 528 1:53.6 239 1080 18 75 137
5:00.0 539 1:51.3 254 1140 19 63 141
6:00.0 540 1:51.1 255 1140 19 62 142
7:00.0 537 1:51.7 251 1140 19 63 143
8:00.0 531 1:52.9 243 1080 18 62 141
9:00.0 532 1:52.7 244 1080 18 61 143
10:00.0 545 1:50.0 262 1200 20 64 148
11:00.0 541 1:50.9 257 1140 19 63 146
12:00.0 537 1:51.7 251 1140 19 62 144
13:00.0 545 1:50.0 262 1200 20 63 151
14:00.0 531 1:52.9 243 1080 18 62 145
15:00.0 533 1:52.5 245 1140 19 62 140
16:00.0 535 1:52.1 248 1140 19 62 143
17:00.0 539 1:51.3 254 1140 19 63 149
18:00.0 528 1:53.6 239 1080 18 61 145
19:00.0 532 1:52.7 244 1080 18 62 143
20:00.0 541 1:50.9 257 1140 19 63 152
21:00.0 544 1:50.2 261 1140 19 63 150
22:00.0 541 1:50.9 257 1140 19 63 151
23:00.0 527 1:53.8 237 1080 18 61 147
24:00.0 542 1:50.7 258 1140 19 63 152
25:00.0 551 1:48.8 271 1200 20 64 159
26:00.0 534 1:52.3 247 1140 19 62 155
27:00.0 548 1:49.4 267 1200 20 64 155
28:00.0 576 1:44.1 310 1320 22 67 166
29:00.0 523 1:54.7 232 1080 18 60 156
30:00.0 534 1:52.3 247 1140 19 62 158
31:00.0 543 1:50.4 259 1140 19 64 156
32:00.0 544 1:50.2 261 1140 19 63 160
33:00.0 543 1:50.4 259 1140 19 63 163
34:00.0 559 1:47.3 283 1200 20 64 167
35:00.0 551 1:48.8 271 1200 20 64 166
36:00.0 560 1:47.1 285 1260 21 65 167
37:00.0 552 1:48.6 273 1200 20 64 170
38:00.0 547 1:49.6 265 1200 20 64 171
39:00.0 557 1:47.7 280 1260 21 64 172
40:00.0 571 1:45.0 302 1320 22 68 173

Click and drag on the graph to zoom in on a section.

Workout Graph

Loading data.